Edward Oldendorff — 9HA3853 — position and weather

sailwx.info

Track history (hours):
 
Tides and Currents Weather Stations Pressure Air Temp Water Temp Dewpoint Dewpoint Depression Visibility Wind Speed Wind Dir Waves Ship Positions

Edward Oldendorff

Last reported at 2017-Dec-14 18:31 UTC. Time now 2017-Dec-16 12:45 UTC.
Position N 09°13' W 079°56'.

Length 180 m; draft 11.1 m.

Type: Cargo ship. MMSI: 256219000.

Date/timePositionNaut miles runAvg speedWind from/ knotsBaromVisibWave heightAir tempDewpointWater temp
2017-Dec-14 18:31N 09°13' W 079°56'0 0.4
2017-Dec-14 17:52N 09°12' W 079°56'0 0.1
2017-Dec-14 17:22N 09°13' W 079°56'0 0.1
2017-Dec-14 16:52N 09°12' W 079°56'0 0.2
2017-Dec-14 16:19N 09°12' W 079°56'0 0.1
2017-Dec-14 15:55N 09°12' W 079°56'0 0.0
2017-Dec-14 14:55N 09°12' W 079°56'0 0.1
2017-Dec-14 14:28N 09°13' W 079°56'0 0.0
2017-Dec-14 13:58N 09°13' W 079°56'0 0.0
2017-Dec-14 13:10N 09°13' W 079°56'0 0.0
2017-Dec-14 12:58N 09°13' W 079°56'0 0.0
2017-Dec-14 12:07N 09°13' W 079°56'0 0.1
2017-Dec-14 11:58N 09°13' W 079°56'0 0.0
2017-Dec-14 11:28N 09°12' W 079°56'0 0.1
2017-Dec-14 10:58N 09°13' W 079°56'0 0.3
2017-Dec-14 10:28N 09°13' W 079°56'0 0.7
2017-Dec-14 10:00N 09°13' W 079°56'2 3.6
2017-Dec-14 09:30N 09°15' W 079°55'2 3.3
2017-Dec-14 09:00N 09°16' W 079°55'0 0.4
2017-Dec-14 08:30N 09°16' W 079°55'0 0.5
2017-Dec-14 08:00N 09°17' W 079°55'1 2.0
2017-Dec-14 07:30N 09°18' W 079°55'3 6.2
2017-Dec-14 07:00N 09°21' W 079°55'1 3.0
2017-Dec-14 06:30N 09°22' W 079°56'0 0.1
2017-Dec-14 05:58N 09°22' W 079°56'0 0.0
2017-Dec-14 05:28N 09°22' W 079°56'0 0.1
2017-Dec-14 04:58N 09°22' W 079°56'0 0.1
2017-Dec-14 04:28N 09°22' W 079°55'0 0.0
2017-Dec-14 03:58N 09°22' W 079°55'0 0.0
2017-Dec-14 03:28N 09°22' W 079°55'0 0.0
2017-Dec-14 02:58N 09°22' W 079°55'0 0.1
2017-Dec-14 02:28N 09°22' W 079°56'0 0.1
2017-Dec-14 01:58N 09°22' W 079°56'0 0.1
2017-Dec-14 01:28N 09°22' W 079°56'0 0.0
2017-Dec-14 00:55N 09°22' W 079°56'0 0.0
2017-Dec-14 00:28N 09°22' W 079°56'0 0.1
2017-Dec-13 23:55N 09°22' W 079°56'0 0.1
2017-Dec-13 23:28N 09°22' W 079°56'0 0.0
2017-Dec-13 22:58N 09°22' W 079°56'0 0.0
2017-Dec-13 22:28N 09°22' W 079°56'0 0.0
2017-Dec-13 21:58N 09°22' W 079°56'0 0.0
2017-Dec-13 21:28N 09°22' W 079°56'0 0.0
2017-Dec-13 20:58N 09°22' W 079°55'0 0.0
2017-Dec-13 20:28N 09°22' W 079°55'0 0.0
2017-Dec-13 19:58N 09°22' W 079°55'0 0.1
2017-Dec-13 19:28N 09°22' W 079°56'0 0.1
2017-Dec-13 18:58N 09°22' W 079°55'0 0.1
2017-Dec-13 18:28N 09°22' W 079°55'0 0.0
2017-Dec-13 17:58N 09°22' W 079°55'0 0.0
2017-Dec-13 17:28N 09°22' W 079°55'0 0.0
2017-Dec-13 16:58N 09°22' W 079°55'0 0.0
2017-Dec-13 16:28N 09°22' W 079°55'0 0.0
2017-Dec-13 15:58N 09°22' W 079°55'0 0.0
2017-Dec-13 15:28N 09°22' W 079°55'0 0.0
2017-Dec-13 14:58N 09°22' W 079°55'0 0.1
2017-Dec-13 14:28N 09°22' W 079°56'1 2.5
2017-Dec-13 14:00N 09°23' W 079°55'4 8.1
2017-Dec-13 13:31N 09°28' W 079°55'4 7.8
2017-Dec-13 13:01N 09°30' W 079°58'4 8.5
2017-Dec-13 12:31N 09°26' W 079°58'2 3.5
2017-Dec-13 12:01N 09°24' W 079°58'0 0.2
2017-Dec-13 11:28N 09°24' W 079°57'0 0.1
2017-Dec-13 10:58N 09°24' W 079°57'0 0.0
2017-Dec-13 10:25N 09°24' W 079°57'0 0.0
2017-Dec-13 09:58N 09°24' W 079°57'0 0.0
2017-Dec-13 09:25N 09°24' W 079°57'0 0.1
2017-Dec-13 08:58N 09°24' W 079°57'0 0.0
2017-Dec-13 08:28N 09°24' W 079°57'0 0.0
2017-Dec-13 07:55N 09°24' W 079°57'0 0.0
2017-Dec-13 07:28N 09°24' W 079°57'0 0.1
2017-Dec-13 06:58N 09°24' W 079°57'0 0.0
2017-Dec-13 06:28N 09°24' W 079°57'0 0.0
2017-Dec-13 05:58N 09°24' W 079°57'0 0.0
2017-Dec-13 05:28N 09°24' W 079°57'0 0.0
2017-Dec-13 04:58N 09°24' W 079°57'0 0.0
2017-Dec-13 04:28N 09°24' W 079°57'0 0.0
2017-Dec-13 03:58N 09°24' W 079°57'0 0.0
2017-Dec-13 03:25N 09°24' W 079°57'0 0.0
2017-Dec-13 02:55N 09°24' W 079°57'0 0.0
2017-Dec-13 02:28N 09°24' W 079°57'0 0.1
2017-Dec-13 01:58N 09°24' W 079°57'0 0.0
2017-Dec-13 01:28N 09°24' W 079°57'0 0.0
2017-Dec-13 00:58N 09°24' W 079°57'0 0.0
2017-Dec-13 00:25N 09°24' W 079°57'0 0.0
2017-Dec-12 23:55N 09°24' W 079°57'0 0.0
2017-Dec-12 23:28N 09°24' W 079°57'0 0.0
2017-Dec-12 22:58N 09°24' W 079°57'0 0.0
2017-Dec-12 22:28N 09°24' W 079°57'0 0.0
2017-Dec-12 21:58N 09°24' W 079°57'0 0.0
2017-Dec-12 21:28N 09°24' W 079°57'0 0.0
2017-Dec-12 20:58N 09°24' W 079°57'0 0.0
2017-Dec-12 20:28N 09°24' W 079°57'0 0.0
2017-Dec-12 19:58N 09°24' W 079°57'0 0.0
2017-Dec-12 19:28N 09°24' W 079°57'0 0.0
2017-Dec-12 18:58N 09°24' W 079°57'0 0.0
2017-Dec-12 18:28N 09°24' W 079°57'0 0.0
2017-Dec-12 17:58N 09°24' W 079°57'0 0.0
2017-Dec-12 17:28N 09°24' W 079°57'0 0.0
2017-Dec-12 16:58N 09°24' W 079°57'0 0.0
2017-Dec-12 16:28N 09°24' W 079°57'0 0.0
2017-Dec-12 15:58N 09°24' W 079°57'0 0.0
2017-Dec-12 15:25N 09°24' W 079°57'0 0.0
2017-Dec-12 14:58N 09°24' W 079°57'0 0.0
2017-Dec-12 14:28N 09°24' W 079°57'0 0.0
2017-Dec-12 13:58N 09°24' W 079°57'0 0.0
2017-Dec-12 13:28N 09°24' W 079°57'0 0.0
2017-Dec-12 12:58N 09°24' W 079°57'0 0.0
2017-Dec-12 12:28N 09°24' W 079°57'0 0.0
2017-Dec-12 11:58N 09°24' W 079°57'0 0.0
2017-Dec-12 11:28N 09°24' W 079°57'0 0.0
2017-Dec-12 10:58N 09°24' W 079°57'0 0.0
2017-Dec-12 10:28N 09°24' W 079°57'0 0.0
2017-Dec-12 09:58N 09°24' W 079°57'0 0.1
2017-Dec-12 09:28N 09°24' W 079°57'0 0.1
2017-Dec-12 08:58N 09°24' W 079°57'0 0.0
2017-Dec-12 08:28N 09°24' W 079°57'0 0.0
2017-Dec-12 07:58N 09°24' W 079°57'0 0.0
2017-Dec-12 07:28N 09°24' W 079°57'0 0.0
2017-Dec-12 06:58N 09°24' W 079°57'0 0.0
2017-Dec-12 06:28N 09°24' W 079°57'0 0.0
2017-Dec-12 05:58N 09°24' W 079°57'0 0.0
2017-Dec-12 05:25N 09°24' W 079°57'0 0.0
2017-Dec-12 04:58N 09°24' W 079°57'0 0.0
2017-Dec-12 04:25N 09°24' W 079°57'0 0.0
2017-Dec-12 03:58N 09°24' W 079°57'0 0.0
2017-Dec-12 03:28N 09°24' W 079°57'0 0.0
2017-Dec-12 02:58N 09°24' W 079°57'0 0.0
2017-Dec-12 02:28N 09°24' W 079°57'0 0.0
2017-Dec-12 01:58N 09°24' W 079°57'0 0.0
2017-Dec-12 01:28N 09°24' W 079°57'0 0.0
2017-Dec-12 00:58N 09°24' W 079°57'0 0.0
2017-Dec-12 00:28N 09°24' W 079°57'0 0.0
2017-Dec-11 23:58N 09°24' W 079°57'0 0.0
2017-Dec-11 23:28N 09°24' W 079°57'0 0.0
2017-Dec-11 22:58N 09°24' W 079°57'0 0.0
2017-Dec-11 22:28N 09°24' W 079°57'0 0.1
2017-Dec-11 21:58N 09°24' W 079°57'0 0.5
2017-Dec-11 21:30N 09°24' W 079°58'1 1.9
2017-Dec-11 20:58N 09°25' W 079°58'0 0.2
2017-Dec-11 20:28N 09°25' W 079°57'0 0.0
2017-Dec-11 19:55N 09°25' W 079°57'0 0.5
2017-Dec-11 19:30N 09°25' W 079°58'2 4.1
2017-Dec-11 19:00N 09°26' W 079°57'4 7.5
2017-Dec-11 18:30N 09°30' W 079°57'  
Track history (hours):
 
Tides and Currents Weather Stations Pressure Air Temp Water Temp Dewpoint Dewpoint Depression Visibility Wind Speed Wind Dir Waves Ship Positions

Edward Oldendorff

Last reported at 2017-Dec-14 18:31 UTC. Time now 2017-Dec-16 12:45 UTC.
Position N 09°13' W 079°56'.

Length 180 m; draft 11.1 m.

Type: Cargo ship. MMSI: 256219000.

Date/timePositionNaut miles runAvg speedWind from/ knotsBaromVisibWave heightAir tempDewpointWater temp
2017-Dec-14 18:31N 09°13' W 079°56'0 0.4
2017-Dec-14 17:52N 09°12' W 079°56'0 0.1
2017-Dec-14 17:22N 09°13' W 079°56'0 0.1
2017-Dec-14 16:52N 09°12' W 079°56'0 0.2
2017-Dec-14 16:19N 09°12' W 079°56'0 0.1
2017-Dec-14 15:55N 09°12' W 079°56'0 0.0
2017-Dec-14 14:55N 09°12' W 079°56'0 0.1
2017-Dec-14 14:28N 09°13' W 079°56'0 0.0
2017-Dec-14 13:58N 09°13' W 079°56'0 0.0
2017-Dec-14 13:10N 09°13' W 079°56'0 0.0
2017-Dec-14 12:58N 09°13' W 079°56'0 0.0
2017-Dec-14 12:07N 09°13' W 079°56'0 0.1
2017-Dec-14 11:58N 09°13' W 079°56'0 0.0
2017-Dec-14 11:28N 09°12' W 079°56'0 0.1
2017-Dec-14 10:58N 09°13' W 079°56'0 0.3
2017-Dec-14 10:28N 09°13' W 079°56'0 0.7
2017-Dec-14 10:00N 09°13' W 079°56'2 3.6
2017-Dec-14 09:30N 09°15' W 079°55'2 3.3
2017-Dec-14 09:00N 09°16' W 079°55'0 0.4
2017-Dec-14 08:30N 09°16' W 079°55'0 0.5
2017-Dec-14 08:00N 09°17' W 079°55'1 2.0
2017-Dec-14 07:30N 09°18' W 079°55'3 6.2
2017-Dec-14 07:00N 09°21' W 079°55'1 3.0
2017-Dec-14 06:30N 09°22' W 079°56'0 0.1
2017-Dec-14 05:58N 09°22' W 079°56'0 0.0
2017-Dec-14 05:28N 09°22' W 079°56'0 0.1
2017-Dec-14 04:58N 09°22' W 079°56'0 0.1
2017-Dec-14 04:28N 09°22' W 079°55'0 0.0
2017-Dec-14 03:58N 09°22' W 079°55'0 0.0
2017-Dec-14 03:28N 09°22' W 079°55'0 0.0
2017-Dec-14 02:58N 09°22' W 079°55'0 0.1
2017-Dec-14 02:28N 09°22' W 079°56'0 0.1
2017-Dec-14 01:58N 09°22' W 079°56'0 0.1
2017-Dec-14 01:28N 09°22' W 079°56'0 0.0
2017-Dec-14 00:55N 09°22' W 079°56'0 0.0
2017-Dec-14 00:28N 09°22' W 079°56'0 0.1
2017-Dec-13 23:55N 09°22' W 079°56'0 0.1
2017-Dec-13 23:28N 09°22' W 079°56'0 0.0
2017-Dec-13 22:58N 09°22' W 079°56'0 0.0
2017-Dec-13 22:28N 09°22' W 079°56'0 0.0
2017-Dec-13 21:58N 09°22' W 079°56'0 0.0
2017-Dec-13 21:28N 09°22' W 079°56'0 0.0
2017-Dec-13 20:58N 09°22' W 079°55'0 0.0
2017-Dec-13 20:28N 09°22' W 079°55'0 0.0
2017-Dec-13 19:58N 09°22' W 079°55'0 0.1
2017-Dec-13 19:28N 09°22' W 079°56'0 0.1
2017-Dec-13 18:58N 09°22' W 079°55'0 0.1
2017-Dec-13 18:28N 09°22' W 079°55'0 0.0
2017-Dec-13 17:58N 09°22' W 079°55'0 0.0
2017-Dec-13 17:28N 09°22' W 079°55'0 0.0
2017-Dec-13 16:58N 09°22' W 079°55'0 0.0
2017-Dec-13 16:28N 09°22' W 079°55'0 0.0
2017-Dec-13 15:58N 09°22' W 079°55'0 0.0
2017-Dec-13 15:28N 09°22' W 079°55'0 0.0
2017-Dec-13 14:58N 09°22' W 079°55'0 0.1
2017-Dec-13 14:28N 09°22' W 079°56'1 2.5
2017-Dec-13 14:00N 09°23' W 079°55'4 8.1
2017-Dec-13 13:31N 09°28' W 079°55'4 7.8
2017-Dec-13 13:01N 09°30' W 079°58'4 8.5
2017-Dec-13 12:31N 09°26' W 079°58'2 3.5
2017-Dec-13 12:01N 09°24' W 079°58'0 0.2
2017-Dec-13 11:28N 09°24' W 079°57'0 0.1
2017-Dec-13 10:58N 09°24' W 079°57'0 0.0
2017-Dec-13 10:25N 09°24' W 079°57'0 0.0
2017-Dec-13 09:58N 09°24' W 079°57'0 0.0
2017-Dec-13 09:25N 09°24' W 079°57'0 0.1
2017-Dec-13 08:58N 09°24' W 079°57'0 0.0
2017-Dec-13 08:28N 09°24' W 079°57'0 0.0
2017-Dec-13 07:55N 09°24' W 079°57'0 0.0
2017-Dec-13 07:28N 09°24' W 079°57'0 0.1
2017-Dec-13 06:58N 09°24' W 079°57'0 0.0
2017-Dec-13 06:28N 09°24' W 079°57'0 0.0
2017-Dec-13 05:58N 09°24' W 079°57'0 0.0
2017-Dec-13 05:28N 09°24' W 079°57'0 0.0
2017-Dec-13 04:58N 09°24' W 079°57'0 0.0
2017-Dec-13 04:28N 09°24' W 079°57'0 0.0
2017-Dec-13 03:58N 09°24' W 079°57'0 0.0
2017-Dec-13 03:25N 09°24' W 079°57'0 0.0
2017-Dec-13 02:55N 09°24' W 079°57'0 0.0
2017-Dec-13 02:28N 09°24' W 079°57'0 0.1
2017-Dec-13 01:58N 09°24' W 079°57'0 0.0
2017-Dec-13 01:28N 09°24' W 079°57'0 0.0
2017-Dec-13 00:58N 09°24' W 079°57'0 0.0
2017-Dec-13 00:25N 09°24' W 079°57'0 0.0
2017-Dec-12 23:55N 09°24' W 079°57'0 0.0
2017-Dec-12 23:28N 09°24' W 079°57'0 0.0
2017-Dec-12 22:58N 09°24' W 079°57'0 0.0
2017-Dec-12 22:28N 09°24' W 079°57'0 0.0
2017-Dec-12 21:58N 09°24' W 079°57'0 0.0
2017-Dec-12 21:28N 09°24' W 079°57'0 0.0
2017-Dec-12 20:58N 09°24' W 079°57'0 0.0
2017-Dec-12 20:28N 09°24' W 079°57'0 0.0
2017-Dec-12 19:58N 09°24' W 079°57'0 0.0
2017-Dec-12 19:28N 09°24' W 079°57'0 0.0
2017-Dec-12 18:58N 09°24' W 079°57'0 0.0
2017-Dec-12 18:28N 09°24' W 079°57'0 0.0
2017-Dec-12 17:58N 09°24' W 079°57'0 0.0
2017-Dec-12 17:28N 09°24' W 079°57'0 0.0
2017-Dec-12 16:58N 09°24' W 079°57'0 0.0
2017-Dec-12 16:28N 09°24' W 079°57'0 0.0
2017-Dec-12 15:58N 09°24' W 079°57'0 0.0
2017-Dec-12 15:25N 09°24' W 079°57'0 0.0
2017-Dec-12 14:58N 09°24' W 079°57'0 0.0
2017-Dec-12 14:28N 09°24' W 079°57'0 0.0
2017-Dec-12 13:58N 09°24' W 079°57'0 0.0
2017-Dec-12 13:28N 09°24' W 079°57'0 0.0
2017-Dec-12 12:58N 09°24' W 079°57'0 0.0
2017-Dec-12 12:28N 09°24' W 079°57'0 0.0
2017-Dec-12 11:58N 09°24' W 079°57'0 0.0
2017-Dec-12 11:28N 09°24' W 079°57'0 0.0
2017-Dec-12 10:58N 09°24' W 079°57'0 0.0
2017-Dec-12 10:28N 09°24' W 079°57'0 0.0
2017-Dec-12 09:58N 09°24' W 079°57'0 0.1
2017-Dec-12 09:28N 09°24' W 079°57'0 0.1
2017-Dec-12 08:58N 09°24' W 079°57'0 0.0
2017-Dec-12 08:28N 09°24' W 079°57'0 0.0
2017-Dec-12 07:58N 09°24' W 079°57'0 0.0
2017-Dec-12 07:28N 09°24' W 079°57'0 0.0
2017-Dec-12 06:58N 09°24' W 079°57'0 0.0
2017-Dec-12 06:28N 09°24' W 079°57'0 0.0
2017-Dec-12 05:58N 09°24' W 079°57'0 0.0
2017-Dec-12 05:25N 09°24' W 079°57'0 0.0
2017-Dec-12 04:58N 09°24' W 079°57'0 0.0
2017-Dec-12 04:25N 09°24' W 079°57'0 0.0
2017-Dec-12 03:58N 09°24' W 079°57'0 0.0
2017-Dec-12 03:28N 09°24' W 079°57'0 0.0
2017-Dec-12 02:58N 09°24' W 079°57'0 0.0
2017-Dec-12 02:28N 09°24' W 079°57'0 0.0
2017-Dec-12 01:58N 09°24' W 079°57'0 0.0
2017-Dec-12 01:28N 09°24' W 079°57'0 0.0
2017-Dec-12 00:58N 09°24' W 079°57'0 0.0
2017-Dec-12 00:28N 09°24' W 079°57'0 0.0
2017-Dec-11 23:58N 09°24' W 079°57'0 0.0
2017-Dec-11 23:28N 09°24' W 079°57'0 0.0
2017-Dec-11 22:58N 09°24' W 079°57'0 0.0
2017-Dec-11 22:28N 09°24' W 079°57'0 0.1
2017-Dec-11 21:58N 09°24' W 079°57'0 0.5
2017-Dec-11 21:30N 09°24' W 079°58'1 1.9
2017-Dec-11 20:58N 09°25' W 079°58'0 0.2
2017-Dec-11 20:28N 09°25' W 079°57'0 0.0
2017-Dec-11 19:55N 09°25' W 079°57'0 0.5
2017-Dec-11 19:30N 09°25' W 079°58'2 4.1
2017-Dec-11 19:00N 09°26' W 079°57'4 7.5
2017-Dec-11 18:30N 09°30' W 079°57'  

Dump ship's entire track history